createdAt,value
2023-07-25T00:00:09.081Z,2.03
2023-07-25T00:00:20.912Z,1.90
2023-07-25T00:00:32.674Z,1.85
2023-07-25T00:00:44.412Z,1.90
2023-07-25T00:00:56.139Z,1.98
2023-07-25T00:01:08.948Z,2.00
2023-07-25T00:01:21.735Z,2.00
2023-07-25T00:01:33.715Z,1.90
2023-07-25T00:01:45.890Z,1.88
2023-07-25T00:01:57.905Z,1.90
2023-07-25T00:02:09.719Z,1.92
2023-07-25T00:02:21.510Z,2.10
2023-07-25T00:02:33.235Z,2.10
2023-07-25T00:02:44.944Z,1.80
2023-07-25T00:02:56.677Z,1.90
2023-07-25T00:03:08.492Z,2.00
2023-07-25T00:03:20.178Z,2.00
2023-07-25T00:03:33.040Z,2.00
2023-07-25T00:03:44.781Z,2.00
2023-07-25T00:03:56.551Z,1.90
2023-07-25T00:04:09.285Z,2.10
2023-07-25T00:04:21.085Z,2.00
2023-07-25T00:04:32.788Z,1.95
2023-07-25T00:04:44.495Z,1.98
2023-07-25T00:04:57.570Z,1.90
2023-07-25T00:05:11.521Z,1.80
2023-07-25T00:05:23.210Z,1.85
2023-07-25T00:05:36.130Z,2.00
2023-07-25T00:05:47.851Z,2.10
2023-07-25T00:06:01.681Z,2.10
2023-07-25T00:06:13.362Z,2.10
2023-07-25T00:06:25.076Z,2.05
2023-07-25T00:06:36.829Z,2.13
2023-07-25T00:06:48.519Z,2.10
2023-07-25T00:07:01.163Z,2.00
2023-07-25T00:07:12.928Z,1.95
2023-07-25T00:07:24.904Z,2.00
2023-07-25T00:07:36.574Z,2.05
2023-07-25T00:07:48.756Z,2.20
2023-07-25T00:08:00.433Z,2.10
2023-07-25T00:08:12.188Z,2.10
2023-07-25T00:08:23.957Z,2.10
2023-07-25T00:08:35.822Z,2.03
2023-07-25T00:08:48.853Z,1.85
2023-07-25T00:09:00.704Z,1.90
2023-07-25T00:09:12.374Z,2.03
2023-07-25T00:09:24.072Z,2.05
2023-07-25T00:09:35.760Z,2.07
2023-07-25T00:09:47.451Z,2.00
2023-07-25T00:09:59.447Z,2.05
2023-07-25T00:10:11.168Z,2.00
2023-07-25T00:10:22.952Z,2.00
2023-07-25T00:10:34.976Z,1.90
2023-07-25T00:10:46.644Z,2.00
2023-07-25T00:10:59.388Z,2.15
2023-07-25T00:11:13.904Z,2.03
2023-07-25T00:11:25.619Z,2.17
2023-07-25T00:11:37.336Z,2.30
2023-07-25T00:11:49.048Z,2.17
2023-07-25T00:12:00.712Z,2.10
2023-07-25T00:12:12.407Z,2.33
2023-07-25T00:12:24.253Z,2.47
2023-07-25T00:12:36.021Z,2.42
2023-07-25T00:12:47.708Z,2.40
2023-07-25T00:13:00.375Z,2.38
2023-07-25T00:13:12.083Z,2.42
2023-07-25T00:13:23.793Z,2.50
2023-07-25T00:13:35.515Z,2.40
2023-07-25T00:13:47.245Z,2.40
2023-07-25T00:13:58.953Z,2.42
2023-07-25T00:14:10.651Z,2.40
2023-07-25T00:14:22.441Z,2.30
2023-07-25T00:14:35.938Z,2.10
2023-07-25T00:14:47.719Z,2.20
2023-07-25T00:14:59.395Z,2.28
2023-07-25T00:15:11.773Z,2.30
2023-07-25T00:15:23.486Z,2.30
2023-07-25T00:15:35.231Z,2.40
2023-07-25T00:15:46.916Z,2.50
2023-07-25T00:15:58.797Z,2.60
2023-07-25T00:16:10.514Z,2.50
2023-07-25T00:16:23.254Z,2.50
2023-07-25T00:16:35.064Z,2.40
2023-07-25T00:16:47.091Z,2.35
2023-07-25T00:16:58.913Z,2.60
2023-07-25T00:17:10.669Z,2.65
2023-07-25T00:17:22.478Z,2.50
2023-07-25T00:17:34.272Z,2.60
2023-07-25T00:17:46.054Z,2.65
2023-07-25T00:17:58.087Z,2.70
2023-07-25T00:18:09.877Z,2.50
2023-07-25T00:18:22.565Z,2.67
2023-07-25T00:18:35.376Z,2.75
2023-07-25T00:18:47.093Z,2.70
2023-07-25T00:18:58.787Z,2.60
2023-07-25T00:19:10.465Z,2.53
2023-07-25T00:19:22.188Z,2.45
2023-07-25T00:19:33.914Z,2.60
2023-07-25T00:19:46.618Z,2.70
2023-07-25T00:19:59.703Z,2.53
2023-07-25T00:20:12.035Z,2.70
2023-07-25T00:20:23.776Z,2.70
2023-07-25T00:20:35.517Z,2.75
2023-07-25T00:20:47.255Z,2.88
2023-07-25T00:20:59.047Z,3.00
2023-07-25T00:21:10.850Z,2.85
2023-07-25T00:21:23.602Z,2.70
2023-07-25T00:21:35.572Z,2.72
2023-07-25T00:21:47.665Z,2.80
2023-07-25T00:21:59.450Z,2.90
2023-07-25T00:22:11.869Z,2.72
2023-07-25T00:22:23.907Z,2.70
2023-07-25T00:22:35.645Z,2.75
2023-07-25T00:22:47.412Z,2.88
2023-07-25T00:22:59.116Z,2.88
2023-07-25T00:23:11.804Z,2.90
2023-07-25T00:23:23.514Z,2.90
2023-07-25T00:23:35.224Z,3.00
2023-07-25T00:23:46.920Z,2.92
2023-07-25T00:23:58.640Z,3.03
2023-07-25T00:24:10.328Z,3.00
2023-07-25T00:24:22.055Z,3.00
2023-07-25T00:24:34.811Z,2.80
2023-07-25T00:24:46.730Z,2.90
2023-07-25T00:24:58.498Z,3.05
2023-07-25T00:25:11.180Z,3.10
2023-07-25T00:25:23.327Z,3.05
2023-07-25T00:25:35.192Z,3.20
2023-07-25T00:25:46.948Z,3.20
2023-07-25T00:25:58.692Z,3.20
2023-07-25T00:26:10.446Z,3.15
2023-07-25T00:26:22.155Z,3.25
2023-07-25T00:26:34.880Z,3.30
2023-07-25T00:26:46.586Z,3.38
2023-07-25T00:26:58.273Z,3.30
2023-07-25T00:27:09.981Z,3.15
2023-07-25T00:27:21.751Z,2.97
2023-07-25T00:27:33.483Z,2.90
2023-07-25T00:27:45.202Z,2.97
2023-07-25T00:27:56.914Z,2.92
2023-07-25T00:28:08.606Z,2.90
2023-07-25T00:28:23.483Z,2.92
2023-07-25T00:28:35.235Z,3.08
2023-07-25T00:28:47.041Z,3.05
2023-07-25T00:28:58.740Z,2.97
2023-07-25T00:29:10.572Z,3.00
2023-07-25T00:29:22.437Z,3.00
2023-07-25T00:29:34.130Z,2.90
2023-07-25T00:29:45.865Z,2.92
2023-07-25T00:29:58.709Z,3.00
2023-07-25T00:30:11.076Z,3.10
2023-07-25T00:30:22.946Z,3.23
2023-07-25T00:30:34.717Z,3.30
2023-07-25T00:30:46.410Z,3.10
2023-07-25T00:30:58.081Z,3.13
2023-07-25T00:31:09.836Z,3.13
2023-07-25T00:31:22.571Z,3.20
2023-07-25T00:31:34.599Z,3.10
2023-07-25T00:31:46.631Z,2.97
2023-07-25T00:31:58.354Z,2.92
2023-07-25T00:32:10.301Z,2.90
2023-07-25T00:32:22.080Z,3.08
2023-07-25T00:32:34.980Z,3.15
2023-07-25T00:32:46.728Z,3.28
2023-07-25T00:32:58.493Z,3.38
2023-07-25T00:33:10.324Z,3.33
2023-07-25T00:33:22.095Z,3.47
2023-07-25T00:33:34.823Z,3.40
2023-07-25T00:33:46.518Z,3.25
2023-07-25T00:33:58.232Z,3.10
2023-07-25T00:34:09.929Z,3.13
2023-07-25T00:34:21.641Z,3.28
2023-07-25T00:34:33.352Z,3.17
2023-07-25T00:34:45.055Z,3.33
2023-07-25T00:34:56.738Z,3.53
2023-07-25T00:35:09.929Z,3.55
2023-07-25T00:35:21.609Z,3.50
2023-07-25T00:35:34.283Z,3.58
2023-07-25T00:35:52.205Z,3.38
2023-07-25T00:36:04.439Z,3.38
2023-07-25T00:36:16.147Z,3.50
2023-07-25T00:36:27.929Z,3.40
2023-07-25T00:36:39.681Z,3.40
2023-07-25T00:36:51.550Z,3.38
2023-07-25T00:37:03.409Z,3.30
2023-07-25T00:37:15.119Z,3.33
2023-07-25T00:37:28.833Z,3.40
2023-07-25T00:37:41.502Z,3.22
2023-07-25T00:37:53.239Z,3.20
2023-07-25T00:38:05.329Z,3.25
2023-07-25T00:38:17.010Z,3.15
2023-07-25T00:38:28.683Z,3.40
2023-07-25T00:38:40.421Z,3.45
2023-07-25T00:38:52.146Z,3.53
2023-07-25T00:39:03.996Z,3.55
2023-07-25T00:39:15.692Z,3.50
2023-07-25T00:39:28.380Z,3.50
2023-07-25T00:39:40.089Z,3.40
2023-07-25T00:39:53.652Z,3.50
2023-07-25T00:40:06.587Z,3.30
2023-07-25T00:40:18.316Z,3.10
2023-07-25T00:40:30.035Z,3.10
2023-07-25T00:40:41.740Z,3.20
2023-07-25T00:40:53.444Z,3.45
2023-07-25T00:41:06.203Z,3.58
2023-07-25T00:41:17.981Z,3.50
2023-07-25T00:41:29.899Z,3.28
2023-07-25T00:41:41.833Z,3.20
2023-07-25T00:41:53.571Z,3.38
2023-07-25T00:42:06.157Z,3.53
2023-07-25T00:42:18.045Z,3.53
2023-07-25T00:42:29.787Z,3.63
2023-07-25T00:42:41.708Z,3.70
2023-07-25T00:42:56.528Z,3.60
2023-07-25T00:43:09.199Z,3.58
2023-07-25T00:43:20.908Z,3.50
2023-07-25T00:43:32.618Z,3.45
2023-07-25T00:43:44.410Z,3.60
2023-07-25T00:43:56.110Z,3.60
2023-07-25T00:44:07.932Z,3.58
2023-07-25T00:44:19.602Z,3.70
2023-07-25T00:44:31.307Z,3.78
2023-07-25T00:44:44.034Z,3.50
2023-07-25T00:44:55.715Z,3.50
2023-07-25T00:45:09.104Z,3.38
2023-07-25T00:45:20.817Z,3.38
2023-07-25T00:45:32.648Z,3.35
2023-07-25T00:45:44.658Z,3.50
2023-07-25T00:45:56.476Z,3.60
2023-07-25T00:46:08.507Z,3.60
2023-07-25T00:46:20.398Z,3.60
2023-07-25T00:46:33.224Z,3.58
2023-07-25T00:46:45.301Z,3.45
2023-07-25T00:46:56.999Z,3.58
2023-07-25T00:47:08.734Z,3.70
2023-07-25T00:47:22.717Z,3.70
2023-07-25T00:47:34.705Z,3.55
2023-07-25T00:47:46.542Z,3.58
2023-07-25T00:47:58.325Z,3.60
2023-07-25T00:48:10.064Z,3.70
2023-07-25T00:48:22.752Z,3.70
2023-07-25T00:48:34.580Z,3.50
2023-07-25T00:48:46.569Z,3.50
2023-07-25T00:48:58.298Z,3.55
2023-07-25T00:49:10.076Z,3.55
2023-07-25T00:49:21.952Z,3.47
2023-07-25T00:49:33.636Z,3.55
2023-07-25T00:49:45.670Z,3.88
2023-07-25T00:49:57.439Z,3.78
2023-07-25T00:50:11.713Z,3.55
2023-07-25T00:50:23.520Z,3.40
2023-07-25T00:50:35.438Z,3.33
2023-07-25T00:50:47.251Z,3.47
2023-07-25T00:50:58.940Z,3.58
2023-07-25T00:51:10.669Z,3.45
2023-07-25T00:51:22.744Z,3.53
2023-07-25T00:51:35.189Z,3.72
2023-07-25T00:51:46.942Z,3.45
2023-07-25T00:51:58.624Z,3.40
2023-07-25T00:52:10.485Z,3.53
2023-07-25T00:52:23.203Z,3.83
2023-07-25T00:52:35.024Z,3.80
2023-07-25T00:52:46.729Z,3.60
2023-07-25T00:52:59.784Z,3.72
2023-07-25T00:53:11.915Z,3.67
2023-07-25T00:53:24.657Z,3.70
2023-07-25T00:53:36.809Z,3.78
2023-07-25T00:53:48.563Z,3.80
2023-07-25T00:54:01.948Z,3.80
2023-07-25T00:54:13.798Z,3.80
2023-07-25T00:54:25.509Z,3.63
2023-07-25T00:54:38.944Z,3.50
2023-07-25T00:54:51.700Z,3.50
2023-07-25T00:55:04.199Z,3.65
2023-07-25T00:55:15.970Z,3.80
2023-07-25T00:55:28.541Z,3.95
2023-07-25T00:55:40.292Z,3.80
2023-07-25T00:55:52.957Z,3.80
2023-07-25T00:56:05.387Z,3.90
2023-07-25T00:56:17.302Z,3.83
2023-07-25T00:56:29.057Z,3.70
2023-07-25T00:56:40.755Z,3.88
2023-07-25T00:56:52.471Z,3.90
2023-07-25T00:57:04.759Z,3.88
2023-07-25T00:57:17.526Z,3.70
2023-07-25T00:57:29.365Z,3.80
2023-07-25T00:57:42.066Z,3.90
2023-07-25T00:57:53.834Z,3.83
2023-07-25T00:58:05.649Z,3.90
2023-07-25T00:58:17.569Z,3.90
2023-07-25T00:58:29.827Z,4.00
2023-07-25T00:58:41.538Z,4.20
2023-07-25T00:58:53.498Z,4.00
2023-07-25T00:59:05.532Z,3.97
2023-07-25T00:59:17.425Z,3.95
2023-07-25T00:59:29.095Z,3.85
2023-07-25T00:59:41.884Z,3.90
2023-07-25T00:59:53.631Z,4.03
2023-07-25T01:00:06.912Z,4.20
2023-07-25T01:00:18.711Z,4.10
2023-07-25T01:00:30.418Z,4.30
2023-07-25T01:00:43.136Z,4.35
2023-07-25T01:01:02.552Z,4.13
2023-07-25T01:01:14.261Z,4.00
2023-07-25T01:01:26.820Z,3.90
2023-07-25T01:01:38.763Z,3.88
2023-07-25T01:01:50.545Z,3.97
2023-07-25T01:02:02.312Z,4.03
2023-07-25T01:02:14.772Z,4.10
2023-07-25T01:02:26.725Z,3.90
2023-07-25T01:02:38.582Z,3.78
2023-07-25T01:02:51.511Z,3.88
2023-07-25T01:03:03.529Z,4.00
2023-07-25T01:03:15.629Z,4.22
2023-07-25T01:03:27.464Z,4.22
2023-07-25T01:03:39.867Z,4.20
2023-07-25T01:03:54.562Z,4.03
2023-07-25T01:04:06.561Z,4.32
2023-07-25T01:04:18.583Z,4.20
2023-07-25T01:04:30.290Z,4.00
2023-07-25T01:04:42.747Z,3.90
2023-07-25T01:04:55.605Z,4.20
2023-07-25T01:05:07.620Z,4.10
2023-07-25T01:05:20.720Z,4.10
2023-07-25T01:05:34.199Z,4.22
2023-07-25T01:05:48.360Z,4.28
2023-07-25T01:06:01.416Z,4.18
2023-07-25T01:06:14.286Z,4.07
2023-07-25T01:06:26.011Z,4.20
2023-07-25T01:06:38.339Z,4.20
2023-07-25T01:06:50.602Z,4.00
2023-07-25T01:07:03.852Z,4.00
2023-07-25T01:07:16.004Z,3.90
2023-07-25T01:07:27.979Z,4.00
2023-07-25T01:07:41.224Z,4.35
2023-07-25T01:07:52.954Z,4.32
2023-07-25T01:08:05.179Z,4.18
2023-07-25T01:08:16.936Z,4.10
2023-07-25T01:08:28.647Z,4.20
2023-07-25T01:08:48.361Z,4.30
2023-07-25T01:09:01.030Z,4.30
2023-07-25T01:09:12.722Z,4.10
2023-07-25T01:09:41.218Z,4.13
2023-07-25T01:09:52.953Z,4.15
2023-07-25T01:10:05.110Z,4.20
2023-07-25T01:10:16.840Z,4.30
2023-07-25T01:10:28.521Z,4.20
2023-07-25T01:10:41.224Z,4.28
2023-07-25T01:10:52.958Z,4.40
2023-07-25T01:11:04.698Z,4.40
2023-07-25T01:11:16.543Z,4.43
2023-07-25T01:11:29.245Z,4.18
2023-07-25T01:11:41.054Z,4.30
2023-07-25T01:11:52.784Z,4.32
2023-07-25T01:12:06.201Z,4.40
2023-07-25T01:12:17.872Z,4.38
2023-07-25T01:12:29.854Z,4.50
2023-07-25T01:12:42.566Z,4.50
2023-07-25T01:12:54.251Z,4.53
2023-07-25T01:13:06.075Z,4.57
2023-07-25T01:13:17.803Z,4.60
2023-07-25T01:13:29.527Z,4.60
2023-07-25T01:13:41.292Z,4.45
2023-07-25T01:13:53.056Z,4.55
2023-07-25T01:14:04.822Z,4.63
2023-07-25T01:14:16.529Z,4.78
2023-07-25T01:14:28.245Z,4.80
2023-07-25T01:14:40.605Z,4.85
2023-07-25T01:14:53.380Z,4.72
2023-07-25T01:15:05.815Z,4.53
2023-07-25T01:15:17.817Z,4.35
2023-07-25T01:15:29.721Z,4.30
2023-07-25T01:15:41.961Z,4.20
2023-07-25T01:15:54.426Z,4.35
2023-07-25T01:16:06.596Z,4.50
2023-07-25T01:16:22.183Z,4.70
2023-07-25T01:16:34.822Z,4.80
2023-07-25T01:16:46.552Z,4.70
2023-07-25T01:16:59.048Z,4.70
2023-07-25T01:17:12.718Z,4.68
2023-07-25T01:17:26.160Z,4.88
2023-07-25T01:17:38.028Z,4.68
2023-07-25T01:17:51.378Z,4.68
2023-07-25T01:18:03.257Z,4.68
2023-07-25T01:18:15.097Z,4.47
2023-07-25T01:18:26.968Z,4.40
2023-07-25T01:18:38.809Z,4.47
2023-07-25T01:18:51.738Z,4.65
2023-07-25T01:19:03.659Z,4.55
2023-07-25T01:19:18.226Z,4.47
2023-07-25T01:19:30.955Z,4.50
2023-07-25T01:19:44.958Z,4.32
2023-07-25T01:19:58.024Z,4.15
2023-07-25T01:20:12.058Z,4.35
2023-07-25T01:20:25.535Z,4.40
2023-07-25T01:20:37.951Z,4.38
2023-07-25T01:20:49.796Z,4.30
2023-07-25T01:21:01.513Z,4.38
2023-07-25T01:21:13.604Z,4.22
2023-07-25T01:21:25.515Z,4.22
2023-07-25T01:21:37.453Z,4.25
2023-07-25T01:21:49.192Z,4.30
2023-07-25T01:22:01.142Z,4.22
2023-07-25T01:22:13.916Z,4.38
2023-07-25T01:22:26.953Z,4.60
2023-07-25T01:22:39.425Z,4.55
2023-07-25T01:22:52.185Z,4.50
2023-07-25T01:23:06.171Z,4.55
2023-07-25T01:23:18.725Z,4.47
2023-07-25T01:23:30.825Z,4.55
2023-07-25T01:23:42.924Z,4.65
2023-07-25T01:24:00.598Z,4.70
2023-07-25T01:24:13.451Z,4.40
2023-07-25T01:24:25.555Z,4.38
2023-07-25T01:24:37.871Z,4.45
2023-07-25T01:24:49.735Z,4.75
2023-07-25T01:25:01.468Z,4.65
2023-07-25T01:25:13.277Z,4.40
2023-07-25T01:25:24.976Z,4.20
2023-07-25T01:25:36.765Z,4.35
2023-07-25T01:25:48.522Z,4.35
2023-07-25T01:26:00.966Z,4.57
2023-07-25T01:26:13.658Z,4.68
2023-07-25T01:26:25.401Z,5.07
2023-07-25T01:26:37.117Z,5.20
2023-07-25T01:26:48.892Z,5.10
2023-07-25T01:27:00.617Z,4.85
2023-07-25T01:27:12.404Z,4.88
2023-07-25T01:27:24.156Z,4.95
2023-07-25T01:27:35.884Z,4.90
2023-07-25T01:27:47.799Z,4.93
2023-07-25T01:27:59.541Z,4.88
2023-07-25T01:28:11.263Z,4.88
2023-07-25T01:28:24.293Z,4.90
2023-07-25T01:28:38.325Z,4.80
2023-07-25T01:28:50.057Z,4.80
2023-07-25T01:29:01.738Z,4.60
2023-07-25T01:29:13.404Z,4.50
2023-07-25T01:29:25.156Z,4.57
2023-07-25T01:29:36.902Z,4.63
2023-07-25T01:29:48.592Z,4.38
2023-07-25T01:30:01.293Z,4.25
2023-07-25T01:30:13.069Z,4.43
2023-07-25T01:30:24.826Z,4.75
2023-07-25T01:30:36.529Z,5.03
2023-07-25T01:30:48.421Z,5.07
2023-07-25T01:31:00.227Z,5.10
2023-07-25T01:31:11.940Z,5.10
2023-07-25T01:31:23.648Z,5.10
2023-07-25T01:31:35.362Z,4.90
2023-07-25T01:31:47.091Z,4.78
2023-07-25T01:31:59.751Z,4.70
2023-07-25T01:32:11.873Z,4.75
2023-07-25T01:32:23.691Z,4.70
2023-07-25T01:32:35.627Z,4.40
2023-07-25T01:32:47.367Z,4.60
2023-07-25T01:32:59.098Z,4.68
2023-07-25T01:33:10.926Z,4.60
2023-07-25T01:33:22.656Z,4.47
2023-07-25T01:33:34.396Z,4.40
2023-07-25T01:33:47.060Z,4.50
2023-07-25T01:33:58.813Z,4.57
2023-07-25T01:34:10.606Z,4.70
2023-07-25T01:34:22.415Z,4.65
2023-07-25T01:34:34.162Z,4.38
2023-07-25T01:34:45.900Z,4.38
2023-07-25T01:34:57.718Z,4.50
2023-07-25T01:35:09.413Z,4.75
2023-07-25T01:35:21.270Z,4.80
2023-07-25T01:35:32.970Z,4.60
2023-07-25T01:35:45.661Z,4.47
2023-07-25T01:35:57.420Z,4.50
2023-07-25T01:36:09.143Z,4.50
2023-07-25T01:36:20.910Z,4.60
2023-07-25T01:36:32.605Z,4.43
2023-07-25T01:36:44.345Z,4.38
2023-07-25T01:36:56.072Z,4.68
2023-07-25T01:37:08.656Z,4.97
2023-07-25T01:37:20.960Z,4.93
2023-07-25T01:37:33.675Z,4.65
2023-07-25T01:37:45.376Z,4.60
2023-07-25T01:37:57.081Z,4.63
2023-07-25T01:38:08.838Z,4.82
2023-07-25T01:38:20.558Z,4.82
2023-07-25T01:38:32.248Z,4.70
2023-07-25T01:38:43.947Z,4.70
2023-07-25T01:38:55.670Z,4.50
2023-07-25T01:39:08.742Z,4.50
2023-07-25T01:39:21.455Z,4.45
2023-07-25T01:39:33.127Z,4.47
2023-07-25T01:39:45.115Z,4.50
2023-07-25T01:39:56.899Z,4.50
2023-07-25T01:40:09.868Z,4.70
2023-07-25T01:40:21.649Z,4.70
2023-07-25T01:40:33.355Z,4.78
2023-07-25T01:40:45.030Z,4.70
2023-07-25T01:40:56.710Z,4.75
2023-07-25T01:41:08.416Z,4.80
2023-07-25T01:41:21.116Z,4.80
2023-07-25T01:41:33.139Z,4.75
2023-07-25T01:41:45.193Z,4.80
2023-07-25T01:41:56.918Z,4.85
2023-07-25T01:42:08.626Z,4.70
2023-07-25T01:42:20.828Z,4.85
2023-07-25T01:42:32.960Z,4.90
2023-07-25T01:42:44.672Z,4.80
2023-07-25T01:42:56.411Z,4.78
2023-07-25T01:43:09.273Z,5.05
2023-07-25T01:43:21.004Z,5.28
2023-07-25T01:43:32.767Z,5.20
2023-07-25T01:43:44.434Z,5.07
2023-07-25T01:43:56.190Z,5.10
2023-07-25T01:44:07.958Z,4.90
2023-07-25T01:44:19.662Z,4.68
2023-07-25T01:44:31.411Z,4.55
2023-07-25T01:44:43.128Z,4.50
2023-07-25T01:44:55.806Z,4.47
2023-07-25T01:45:08.772Z,4.57
2023-07-25T01:45:20.698Z,5.20
2023-07-25T01:45:32.475Z,5.13
2023-07-25T01:45:44.286Z,5.00
2023-07-25T01:45:56.121Z,5.20
2023-07-25T01:46:07.893Z,5.45
2023-07-25T01:46:19.721Z,5.60
2023-07-25T01:46:31.469Z,5.47
2023-07-25T01:46:43.166Z,5.50
2023-07-25T01:46:57.125Z,5.38
2023-07-25T01:47:08.866Z,5.15
2023-07-25T01:47:26.453Z,5.13
2023-07-25T01:47:38.310Z,5.32
2023-07-25T01:47:50.152Z,5.25
2023-07-25T01:48:01.881Z,5.32
2023-07-25T01:48:13.594Z,5.30
2023-07-25T01:48:25.375Z,5.03
2023-07-25T01:48:38.037Z,5.00
2023-07-25T01:48:50.066Z,5.07
2023-07-25T01:49:01.788Z,5.25
2023-07-25T01:49:13.962Z,5.40
2023-07-25T01:49:25.673Z,5.45
2023-07-25T01:49:37.398Z,5.32
2023-07-25T01:49:49.078Z,5.28
2023-07-25T01:50:00.822Z,5.35
2023-07-25T01:50:12.530Z,5.40
2023-07-25T01:50:25.214Z,5.47
2023-07-25T01:50:36.902Z,5.38
2023-07-25T01:50:48.588Z,5.40
2023-07-25T01:51:00.290Z,5.30
2023-07-25T01:51:11.992Z,5.40
2023-07-25T01:51:23.666Z,5.43
2023-07-25T01:51:35.381Z,5.57
2023-07-25T01:51:47.084Z,5.60
2023-07-25T01:51:58.864Z,5.63
2023-07-25T01:52:11.529Z,5.57
2023-07-25T01:52:23.327Z,5.60
2023-07-25T01:52:35.054Z,5.72
2023-07-25T01:52:46.773Z,5.90
2023-07-25T01:52:58.480Z,6.10
2023-07-25T01:53:10.183Z,6.20
2023-07-25T01:53:21.889Z,5.97
2023-07-25T01:53:33.595Z,6.10
2023-07-25T01:53:45.304Z,6.15
2023-07-25T01:53:59.410Z,6.50
2023-07-25T01:54:13.461Z,6.45
2023-07-25T01:54:25.280Z,6.50
2023-07-25T01:54:37.006Z,6.45
2023-07-25T01:54:49.649Z,6.50
2023-07-25T01:55:01.387Z,6.40
2023-07-25T01:55:13.096Z,6.20
2023-07-25T01:55:24.839Z,5.93
2023-07-25T01:55:37.623Z,6.15
2023-07-25T01:55:49.324Z,6.18
2023-07-25T01:56:01.116Z,6.22
2023-07-25T01:56:13.797Z,6.20
2023-07-25T01:56:25.981Z,6.85
2023-07-25T01:56:37.746Z,7.25
2023-07-25T01:56:50.982Z,7.25
2023-07-25T01:57:02.960Z,7.00
2023-07-25T01:57:14.762Z,6.90
2023-07-25T01:57:26.532Z,6.80
2023-07-25T01:57:39.316Z,6.72
2023-07-25T01:57:51.019Z,6.97
2023-07-25T01:58:02.721Z,7.07
2023-07-25T01:58:14.439Z,7.13
2023-07-25T01:58:26.169Z,7.13
2023-07-25T01:58:37.834Z,7.28
2023-07-25T01:58:49.558Z,7.28
2023-07-25T01:59:01.280Z,7.22
2023-07-25T01:59:13.085Z,6.93
2023-07-25T01:59:25.782Z,6.90
2023-07-25T01:59:37.458Z,6.70
2023-07-25T01:59:50.273Z,6.82
2023-07-25T02:00:02.110Z,7.20
2023-07-25T02:00:14.304Z,7.27
2023-07-25T02:00:26.011Z,7.05
2023-07-25T02:00:37.686Z,6.90
2023-07-25T02:00:49.632Z,7.00
2023-07-25T02:01:02.567Z,6.93
2023-07-25T02:01:14.308Z,6.72
2023-07-25T02:01:26.082Z,6.45
2023-07-25T02:01:37.837Z,6.25
2023-07-25T02:01:49.661Z,6.25
2023-07-25T02:02:01.413Z,6.00
2023-07-25T02:02:13.182Z,5.72
2023-07-25T02:02:24.953Z,5.60
2023-07-25T02:02:36.724Z,5.80
2023-07-25T02:02:49.657Z,5.90
2023-07-25T02:03:01.464Z,5.90
2023-07-25T02:03:16.998Z,5.65
2023-07-25T02:03:29.022Z,5.50
2023-07-25T02:03:40.739Z,5.25
2023-07-25T02:03:52.500Z,5.32
2023-07-25T02:04:04.499Z,5.55
2023-07-25T02:04:16.268Z,5.50
2023-07-25T02:04:28.051Z,5.50
2023-07-25T02:04:40.806Z,5.55
2023-07-25T02:04:52.557Z,5.63
2023-07-25T02:05:05.088Z,5.43
2023-07-25T02:05:16.885Z,5.50
2023-07-25T02:05:28.615Z,5.37
2023-07-25T02:05:40.374Z,5.03
2023-07-25T02:05:52.102Z,4.97
2023-07-25T02:06:05.254Z,5.22
2023-07-25T02:06:16.956Z,5.47
2023-07-25T02:06:28.717Z,5.60
2023-07-25T02:06:41.388Z,5.80
2023-07-25T02:06:53.086Z,5.70
2023-07-25T02:07:05.379Z,5.47
2023-07-25T02:07:17.046Z,5.38
2023-07-25T02:07:28.733Z,5.50
2023-07-25T02:07:40.409Z,5.60
2023-07-25T02:07:52.808Z,5.60
2023-07-25T02:08:05.061Z,5.50
2023-07-25T02:08:16.775Z,5.32
2023-07-25T02:08:28.443Z,5.45
2023-07-25T02:08:40.191Z,5.43
2023-07-25T02:08:52.880Z,5.57
2023-07-25T02:09:04.579Z,5.50
2023-07-25T02:09:18.078Z,5.47
2023-07-25T02:09:29.777Z,5.50
2023-07-25T02:09:41.521Z,5.72
2023-07-25T02:09:53.460Z,5.70
2023-07-25T02:10:06.335Z,5.57
2023-07-25T02:10:18.420Z,5.68
2023-07-25T02:10:33.227Z,5.80
2023-07-25T02:10:44.963Z,5.72
2023-07-25T02:10:56.692Z,5.78
2023-07-25T02:11:08.629Z,6.17
2023-07-25T02:11:20.321Z,6.20
2023-07-25T02:11:32.231Z,6.22
2023-07-25T02:11:44.220Z,6.10
2023-07-25T02:11:55.933Z,6.10
2023-07-25T02:12:08.791Z,6.18
2023-07-25T02:12:20.533Z,6.13
2023-07-25T02:12:32.241Z,6.15
2023-07-25T02:12:44.938Z,6.05
2023-07-25T02:12:57.224Z,5.97
2023-07-25T02:13:09.058Z,6.18
2023-07-25T02:13:20.832Z,6.10
2023-07-25T02:13:32.671Z,6.15
2023-07-25T02:13:44.399Z,5.90
2023-07-25T02:13:56.253Z,5.70
2023-07-25T02:14:07.950Z,5.93
2023-07-25T02:14:19.718Z,6.00
2023-07-25T02:14:31.394Z,6.10
2023-07-25T02:14:43.105Z,5.82
2023-07-25T02:14:55.826Z,5.88
2023-07-25T02:15:08.733Z,6.00
2023-07-25T02:15:20.472Z,6.07
2023-07-25T02:15:32.199Z,6.20
2023-07-25T02:15:43.922Z,6.05
2023-07-25T02:15:55.668Z,6.13
2023-07-25T02:16:07.504Z,6.13
2023-07-25T02:16:19.258Z,6.22
2023-07-25T02:16:34.916Z,5.85
2023-07-25T02:16:46.719Z,5.72
2023-07-25T02:16:58.812Z,6.10
2023-07-25T02:17:10.652Z,6.03
2023-07-25T02:17:22.567Z,6.05
2023-07-25T02:17:34.333Z,6.05
2023-07-25T02:17:46.116Z,6.13
2023-07-25T02:17:57.868Z,6.10
2023-07-25T02:18:09.584Z,5.95
2023-07-25T02:18:21.310Z,5.70
2023-07-25T02:18:34.064Z,5.70
2023-07-25T02:18:45.747Z,6.00
2023-07-25T02:18:57.466Z,6.30
2023-07-25T02:19:09.276Z,6.30
2023-07-25T02:19:21.021Z,6.22
2023-07-25T02:19:32.743Z,6.22
2023-07-25T02:19:44.421Z,6.40
2023-07-25T02:19:56.116Z,6.57
2023-07-25T02:20:08.806Z,6.35
2023-07-25T02:20:21.208Z,6.53
2023-07-25T02:20:34.253Z,6.80
2023-07-25T02:20:45.976Z,6.85
2023-07-25T02:20:57.675Z,6.88
2023-07-25T02:21:09.405Z,7.05
2023-07-25T02:21:21.141Z,7.35
2023-07-25T02:21:33.241Z,7.35
2023-07-25T02:21:45.296Z,7.07
2023-07-25T02:21:57.012Z,6.50
2023-07-25T02:22:08.761Z,6.35
2023-07-25T02:22:21.451Z,6.30
2023-07-25T02:22:33.162Z,6.43
2023-07-25T02:22:44.877Z,6.40
2023-07-25T02:22:56.581Z,6.50
2023-07-25T02:23:08.690Z,6.40
2023-07-25T02:23:20.393Z,6.32
2023-07-25T02:23:32.176Z,6.53
2023-07-25T02:23:43.893Z,6.88
2023-07-25T02:23:56.584Z,6.95
2023-07-25T02:24:08.332Z,6.75
2023-07-25T02:24:21.453Z,6.60
2023-07-25T02:24:33.418Z,6.50
2023-07-25T02:24:45.211Z,6.50
2023-07-25T02:24:56.966Z,6.53
2023-07-25T02:25:09.337Z,6.97
2023-07-25T02:25:21.185Z,7.00
2023-07-25T02:25:33.089Z,6.82
2023-07-25T02:25:47.126Z,6.97
2023-07-25T02:25:58.855Z,7.10
2023-07-25T02:26:10.558Z,7.15
2023-07-25T02:26:22.253Z,7.00
2023-07-25T02:26:33.953Z,7.03
2023-07-25T02:26:45.944Z,7.07
2023-07-25T02:26:57.760Z,7.20
2023-07-25T02:27:09.593Z,7.45
2023-07-25T02:27:22.259Z,7.20
2023-07-25T02:27:34.433Z,7.15
2023-07-25T02:27:46.153Z,7.20
2023-07-25T02:27:57.875Z,7.20
2023-07-25T02:28:09.588Z,7.20
2023-07-25T02:28:21.385Z,7.03
2023-07-25T02:28:33.221Z,7.22
2023-07-25T02:28:44.917Z,7.20
2023-07-25T02:28:56.655Z,7.30
2023-07-25T02:29:08.347Z,7.35
2023-07-25T02:29:21.016Z,7.50
2023-07-25T02:29:32.728Z,7.35
2023-07-25T02:29:44.528Z,7.40
2023-07-25T02:29:56.236Z,7.32
2023-07-25T02:30:08.575Z,7.40
2023-07-25T02:30:21.148Z,7.45
2023-07-25T02:30:32.861Z,7.32
2023-07-25T02:30:46.083Z,6.97
2023-07-25T02:30:58.008Z,6.88
2023-07-25T02:31:09.801Z,7.40
2023-07-25T02:31:22.573Z,7.85
2023-07-25T02:31:34.572Z,7.95
2023-07-25T02:31:46.854Z,8.25
2023-07-25T02:31:58.570Z,8.70
2023-07-25T02:32:10.315Z,8.90
2023-07-25T02:32:22.149Z,8.80
2023-07-25T02:32:33.888Z,8.80
2023-07-25T02:32:45.687Z,8.90
2023-07-25T02:32:57.450Z,8.98
2023-07-25T02:33:09.180Z,9.18
2023-07-25T02:33:21.885Z,9.32
2023-07-25T02:33:33.590Z,9.23
2023-07-25T02:33:45.420Z,9.10
2023-07-25T02:33:57.190Z,8.93
2023-07-25T02:34:08.964Z,8.98
2023-07-25T02:34:20.677Z,8.90
2023-07-25T02:34:32.402Z,9.25
2023-07-25T02:34:44.101Z,9.10
2023-07-25T02:34:55.802Z,9.02
2023-07-25T02:35:08.760Z,9.02
2023-07-25T02:35:20.464Z,9.30
2023-07-25T02:35:32.180Z,9.50
2023-07-25T02:35:43.898Z,9.45
2023-07-25T02:35:55.629Z,9.27
2023-07-25T02:36:07.337Z,9.27
2023-07-25T02:36:19.068Z,9.45
2023-07-25T02:36:30.765Z,9.65
2023-07-25T02:36:42.503Z,9.40
2023-07-25T02:36:54.259Z,9.23
2023-07-25T02:37:06.396Z,9.23
2023-07-25T02:37:19.149Z,9.20
2023-07-25T02:37:30.912Z,9.23
2023-07-25T02:37:42.730Z,9.20
2023-07-25T02:37:54.442Z,9.18
2023-07-25T02:38:06.154Z,9.05
2023-07-25T02:38:17.845Z,9.10
2023-07-25T02:38:29.594Z,9.00
2023-07-25T02:38:42.278Z,9.10
2023-07-25T02:38:54.004Z,9.00
2023-07-25T02:39:05.814Z,9.07
2023-07-25T02:39:17.541Z,9.23
2023-07-25T02:39:30.605Z,9.30
2023-07-25T02:39:42.368Z,9.52
2023-07-25T02:39:54.132Z,9.40
2023-07-25T02:40:07.341Z,9.73
2023-07-25T02:40:19.029Z,9.95
2023-07-25T02:40:31.730Z,10.10
2023-07-25T02:40:44.948Z,10.63
2023-07-25T02:40:56.691Z,10.68
2023-07-25T02:41:08.396Z,10.32
2023-07-25T02:41:20.122Z,10.40
2023-07-25T02:41:32.033Z,10.43